createdAt,value
2023-03-02T00:01:21.568Z,32.28
2023-03-02T00:03:48.121Z,33.00
2023-03-02T00:06:14.729Z,31.30
2023-03-02T00:08:41.275Z,31.40
2023-03-02T00:11:07.846Z,31.98
2023-03-02T00:13:36.223Z,31.15
2023-03-02T00:16:02.812Z,30.95
2023-03-02T00:18:29.308Z,32.20
2023-03-02T00:20:55.737Z,30.60
2023-03-02T00:23:22.174Z,29.60
2023-03-02T00:25:48.680Z,32.53
2023-03-02T00:28:15.090Z,31.52
2023-03-02T00:30:41.578Z,30.08
2023-03-02T00:33:08.122Z,30.63
2023-03-02T00:35:41.276Z,30.17
2023-03-02T00:38:08.327Z,31.90
2023-03-02T00:40:35.406Z,30.17
2023-03-02T00:43:01.870Z,30.33
2023-03-02T00:45:28.252Z,30.40
2023-03-02T00:47:54.740Z,31.48
2023-03-02T00:50:21.191Z,30.77
2023-03-02T00:52:47.631Z,29.17
2023-03-02T00:55:14.076Z,28.30
2023-03-02T00:57:40.485Z,29.02
2023-03-02T01:00:07.198Z,31.58
2023-03-02T01:02:33.766Z,31.15
2023-03-02T01:05:00.307Z,30.55
2023-03-02T01:07:28.466Z,28.45
2023-03-02T01:09:55.066Z,28.70
2023-03-02T01:12:21.552Z,27.83
2023-03-02T01:14:48.906Z,29.20
2023-03-02T01:17:16.231Z,31.20
2023-03-02T01:19:42.760Z,27.90
2023-03-02T01:22:09.573Z,31.42
2023-03-02T01:24:36.014Z,29.35
2023-03-02T01:27:02.430Z,27.75
2023-03-02T01:29:29.047Z,29.83
2023-03-02T01:31:55.837Z,28.70
2023-03-02T01:34:22.316Z,29.55
2023-03-02T01:36:48.768Z,28.60
2023-03-02T01:39:16.019Z,29.17
2023-03-02T01:41:43.473Z,29.17
2023-03-02T01:44:28.799Z,30.15
2023-03-02T01:46:55.308Z,30.23
2023-03-02T01:49:21.988Z,30.38
2023-03-02T01:51:48.556Z,31.42
2023-03-02T01:54:17.369Z,32.13
2023-03-02T01:56:46.033Z,28.48
2023-03-02T01:59:14.302Z,31.58
2023-03-02T02:01:42.962Z,30.75
2023-03-02T02:04:09.793Z,30.77
2023-03-02T02:06:40.751Z,31.60
2023-03-02T02:09:09.410Z,31.08
2023-03-02T02:11:35.863Z,31.38
2023-03-02T02:14:02.915Z,31.23
2023-03-02T02:16:31.580Z,31.95
2023-03-02T02:18:58.382Z,31.10
2023-03-02T02:21:25.646Z,30.10
2023-03-02T02:23:52.002Z,29.25
2023-03-02T02:26:27.353Z,32.03
2023-03-02T02:29:02.344Z,30.63
2023-03-02T02:31:43.213Z,31.75
2023-03-02T02:34:25.033Z,30.95
2023-03-02T02:36:54.513Z,33.05
2023-03-02T02:39:23.419Z,30.88
2023-03-02T02:41:50.962Z,32.00
2023-03-02T02:44:18.519Z,29.92
2023-03-02T02:46:45.128Z,30.25
2023-03-02T02:49:21.322Z,32.00
2023-03-02T02:51:47.748Z,32.95
2023-03-02T02:54:17.663Z,30.85
2023-03-02T02:56:44.537Z,32.95
2023-03-02T02:59:17.080Z,34.67
2023-03-02T03:01:43.597Z,31.38
2023-03-02T03:04:12.524Z,36.15
2023-03-02T03:06:48.811Z,32.90
2023-03-02T03:09:15.230Z,35.70
2023-03-02T03:11:43.529Z,34.30
2023-03-02T03:14:09.977Z,35.00
2023-03-02T03:16:37.277Z,36.85
2023-03-02T03:19:06.693Z,34.75
2023-03-02T03:21:33.088Z,36.10
2023-03-02T03:23:59.583Z,33.60
2023-03-02T03:26:26.115Z,36.17
2023-03-02T03:28:52.810Z,35.35
2023-03-02T03:31:19.372Z,35.15
2023-03-02T03:33:45.966Z,33.40
2023-03-02T03:36:12.509Z,34.78
2023-03-02T03:38:39.056Z,39.35
2023-03-02T03:41:05.481Z,37.85
2023-03-02T03:43:32.123Z,37.63
2023-03-02T03:45:58.639Z,37.90
2023-03-02T03:48:25.166Z,39.53
2023-03-02T03:50:51.577Z,38.40
2023-03-02T03:53:18.079Z,39.22
2023-03-02T03:55:44.542Z,37.83
2023-03-02T03:58:10.973Z,39.03
2023-03-02T04:00:37.510Z,38.92
2023-03-02T04:03:04.016Z,37.88
2023-03-02T04:05:31.703Z,36.42
2023-03-02T04:08:02.156Z,35.80
2023-03-02T04:10:29.716Z,36.70
2023-03-02T04:12:56.196Z,34.13
2023-03-02T04:15:22.797Z,34.17
2023-03-02T04:17:49.461Z,38.70
2023-03-02T04:20:16.793Z,35.70
2023-03-02T04:22:47.955Z,34.53
2023-03-02T04:25:15.278Z,33.45
2023-03-02T04:27:41.695Z,33.95
2023-03-02T04:30:08.772Z,32.85
2023-03-02T04:32:35.294Z,34.13
2023-03-02T04:35:01.833Z,33.70
2023-03-02T04:37:28.296Z,32.60
2023-03-02T04:39:54.738Z,30.50
2023-03-02T04:42:21.332Z,30.95
2023-03-02T04:44:48.082Z,32.70
2023-03-02T04:47:14.564Z,30.67
2023-03-02T04:49:40.997Z,31.83
2023-03-02T04:52:07.397Z,26.65
2023-03-02T04:54:33.939Z,28.30
2023-03-02T04:57:00.374Z,29.92
2023-03-02T04:59:27.620Z,28.92
2023-03-02T05:01:55.304Z,29.30
2023-03-02T05:04:21.974Z,29.70
2023-03-02T05:06:48.394Z,29.88
2023-03-02T05:09:15.163Z,25.75
2023-03-02T05:11:41.691Z,28.17
2023-03-02T05:14:09.818Z,27.83
2023-03-02T05:16:37.695Z,28.27
2023-03-02T05:19:05.047Z,29.83
2023-03-02T05:21:31.543Z,26.60
2023-03-02T05:23:58.108Z,27.38
2023-03-02T05:26:24.577Z,28.20
2023-03-02T05:28:53.015Z,25.98
2023-03-02T05:31:35.178Z,25.90
2023-03-02T05:34:02.714Z,27.00
2023-03-02T05:36:29.162Z,27.83
2023-03-02T05:38:55.621Z,26.02
2023-03-02T05:41:22.025Z,27.15
2023-03-02T05:43:48.461Z,27.60
2023-03-02T05:46:14.958Z,29.70
2023-03-02T05:48:42.492Z,28.45
2023-03-02T05:51:08.958Z,28.27
2023-03-02T05:53:35.375Z,28.45
2023-03-02T05:56:01.871Z,28.80
2023-03-02T05:58:28.270Z,26.42
2023-03-02T06:00:54.717Z,28.55
2023-03-02T06:03:21.190Z,28.50
2023-03-02T06:05:50.985Z,27.70
2023-03-02T06:08:18.469Z,29.45
2023-03-02T06:10:45.183Z,27.75
2023-03-02T06:13:11.559Z,30.75
2023-03-02T06:15:39.745Z,28.58
2023-03-02T06:18:06.429Z,30.60
2023-03-02T06:20:32.844Z,31.25
2023-03-02T06:22:59.286Z,28.63
2023-03-02T06:25:25.819Z,32.15
2023-03-02T06:27:53.732Z,30.52
2023-03-02T06:30:21.908Z,28.98
2023-03-02T06:32:48.414Z,30.95
2023-03-02T06:35:15.402Z,29.42
2023-03-02T06:37:44.187Z,29.73
2023-03-02T06:40:11.876Z,28.45
2023-03-02T06:42:38.882Z,30.85
2023-03-02T06:45:06.077Z,29.67
2023-03-02T06:47:33.413Z,30.13
2023-03-02T06:50:00.332Z,28.70
2023-03-02T06:52:27.599Z,30.05
2023-03-02T06:54:54.462Z,30.13
2023-03-02T06:57:21.003Z,28.20
2023-03-02T06:59:47.458Z,27.85
2023-03-02T07:02:14.030Z,28.67
2023-03-02T07:04:40.561Z,28.58
2023-03-02T07:07:06.982Z,29.33
2023-03-02T07:09:34.225Z,27.52
2023-03-02T07:12:00.853Z,25.75
2023-03-02T07:14:27.291Z,26.40
2023-03-02T07:16:53.744Z,26.00
2023-03-02T07:19:20.335Z,25.08
2023-03-02T07:21:46.746Z,26.08
2023-03-02T07:24:13.243Z,24.80
2023-03-02T07:26:39.654Z,26.67
2023-03-02T07:29:06.070Z,25.33
2023-03-02T07:31:32.652Z,27.40
2023-03-02T07:33:59.184Z,27.65
2023-03-02T07:36:26.413Z,24.80
2023-03-02T07:38:52.874Z,24.88
2023-03-02T07:41:19.299Z,24.75
2023-03-02T07:43:45.783Z,26.05
2023-03-02T07:46:12.299Z,25.45
2023-03-02T07:48:38.699Z,24.60
2023-03-02T07:51:05.841Z,24.17
2023-03-02T07:53:32.825Z,24.30
2023-03-02T07:56:01.371Z,25.13
2023-03-02T07:58:27.874Z,25.15
2023-03-02T08:00:54.326Z,23.27
2023-03-02T08:03:20.810Z,22.55
2023-03-02T08:05:47.195Z,24.95
2023-03-02T08:08:13.595Z,22.45
2023-03-02T08:10:39.961Z,23.88
2023-03-02T08:13:06.381Z,22.63
2023-03-02T08:15:32.883Z,22.98
2023-03-02T08:17:59.296Z,23.15
2023-03-02T08:20:25.819Z,23.10
2023-03-02T08:22:52.245Z,21.58
2023-03-02T08:25:18.724Z,22.80
2023-03-02T08:27:46.064Z,22.73
2023-03-02T08:30:12.925Z,21.85
2023-03-02T08:32:39.621Z,23.23
2023-03-02T08:35:06.347Z,23.35
2023-03-02T08:37:33.643Z,22.08
2023-03-02T08:40:00.062Z,21.75
2023-03-02T08:42:26.461Z,22.38
2023-03-02T08:44:52.826Z,22.45
2023-03-02T08:47:19.240Z,23.08
2023-03-02T08:49:46.885Z,22.80
2023-03-02T08:52:15.439Z,22.75
2023-03-02T08:54:42.163Z,23.27
2023-03-02T08:57:10.890Z,22.63
2023-03-02T08:59:37.325Z,22.98
2023-03-02T09:02:03.788Z,23.00
2023-03-02T09:04:30.381Z,23.25
2023-03-02T09:06:56.985Z,23.23
2023-03-02T09:09:23.401Z,21.98
2023-03-02T09:11:52.929Z,22.98
2023-03-02T09:14:19.789Z,22.67
2023-03-02T09:16:47.008Z,21.13
2023-03-02T09:19:13.850Z,21.58
2023-03-02T09:21:40.253Z,21.02
2023-03-02T09:24:07.145Z,22.08
2023-03-02T09:26:34.117Z,21.40
2023-03-02T09:29:00.758Z,23.08
2023-03-02T09:31:30.002Z,20.98
2023-03-02T09:33:57.146Z,20.83
2023-03-02T09:36:24.589Z,20.83
2023-03-02T09:38:51.427Z,20.27
2023-03-02T09:41:20.871Z,20.77
2023-03-02T09:44:05.998Z,20.67
2023-03-02T09:46:44.720Z,19.23
2023-03-02T09:49:22.408Z,20.63
2023-03-02T09:51:54.515Z,19.75
2023-03-02T09:54:24.563Z,19.00
2023-03-02T09:56:54.974Z,18.08
2023-03-02T09:59:38.667Z,18.35
2023-03-02T10:02:23.591Z,18.73
2023-03-02T10:04:54.535Z,17.88
2023-03-02T10:07:31.259Z,17.95
2023-03-02T10:10:01.785Z,18.40
2023-03-02T10:12:40.384Z,17.17
2023-03-02T10:15:19.412Z,16.13
2023-03-02T10:17:59.616Z,16.65
2023-03-02T10:20:25.950Z,16.80
2023-03-02T10:22:54.452Z,16.00
2023-03-02T10:25:24.103Z,16.15
2023-03-02T10:27:52.041Z,15.77
2023-03-02T10:30:27.835Z,15.18
2023-03-02T10:32:56.010Z,14.88
2023-03-02T10:35:24.089Z,13.35
2023-03-02T10:38:07.329Z,16.00
2023-03-02T10:40:39.737Z,14.32
2023-03-02T10:45:32.653Z,12.98
2023-03-02T10:48:06.672Z,13.15
2023-03-02T10:50:33.640Z,13.50
2023-03-02T10:53:02.444Z,14.15
2023-03-02T10:55:30.035Z,12.43
2023-03-02T10:58:04.346Z,13.80
2023-03-02T11:00:31.578Z,11.70
2023-03-02T11:03:06.469Z,12.30
2023-03-02T11:05:37.090Z,12.27
2023-03-02T11:08:09.509Z,11.85
2023-03-02T11:13:15.707Z,11.45
2023-03-02T11:15:49.313Z,10.90
2023-03-02T11:18:27.827Z,12.30
2023-03-02T11:21:05.649Z,11.18
2023-03-02T11:23:53.579Z,11.88
2023-03-02T11:26:28.575Z,10.18
2023-03-02T11:29:00.603Z,11.82
2023-03-02T11:31:33.564Z,10.65
2023-03-02T11:34:27.378Z,10.68
2023-03-02T11:37:13.390Z,9.90
2023-03-02T11:39:55.640Z,10.85
2023-03-02T11:44:48.997Z,11.05
2023-03-02T11:47:16.171Z,10.10
2023-03-02T11:49:45.715Z,9.52
2023-03-02T11:52:20.432Z,9.82
2023-03-02T11:54:52.912Z,9.95
2023-03-02T11:57:31.234Z,9.15
2023-03-02T11:59:58.683Z,9.65
2023-03-02T12:02:26.021Z,9.27
2023-03-02T12:05:04.350Z,9.18
2023-03-02T12:07:30.981Z,9.35
2023-03-02T12:10:08.626Z,8.40
2023-03-02T12:12:38.818Z,8.93
2023-03-02T12:15:24.902Z,8.98
2023-03-02T12:17:52.095Z,9.00
2023-03-02T12:20:24.446Z,9.10
2023-03-02T12:22:50.926Z,8.43
2023-03-02T12:25:20.488Z,9.75
2023-03-02T12:27:48.233Z,8.95
2023-03-02T12:30:24.610Z,8.55
2023-03-02T12:33:03.983Z,8.70
2023-03-02T12:35:34.358Z,7.47
2023-03-02T12:38:02.803Z,8.20
2023-03-02T12:40:47.882Z,7.05
2023-03-02T12:43:20.084Z,7.43
2023-03-02T12:45:46.601Z,7.75
2023-03-02T12:48:23.961Z,7.30
2023-03-02T12:50:52.368Z,7.55
2023-03-02T12:53:19.895Z,7.45
2023-03-02T12:55:46.544Z,7.40
2023-03-02T12:58:18.152Z,6.85
2023-03-02T13:00:49.529Z,6.97
2023-03-02T13:03:16.052Z,7.85
2023-03-02T13:05:42.507Z,6.82
2023-03-02T13:08:20.716Z,6.68
2023-03-02T13:10:52.176Z,7.78
2023-03-02T13:13:20.706Z,7.70
2023-03-02T13:15:54.875Z,7.15
2023-03-02T13:18:22.561Z,5.50
2023-03-02T13:20:49.827Z,6.43
2023-03-02T13:23:17.233Z,5.85
2023-03-02T13:25:47.977Z,6.25
2023-03-02T13:28:34.016Z,6.20
2023-03-02T13:31:02.820Z,5.68
2023-03-02T13:33:30.299Z,5.55
2023-03-02T13:35:57.245Z,5.88
2023-03-02T13:38:26.457Z,5.28
2023-03-02T13:40:53.937Z,5.68
2023-03-02T13:43:26.607Z,5.93
2023-03-02T13:45:53.053Z,5.50
2023-03-02T13:48:19.606Z,5.10
2023-03-02T13:50:59.806Z,5.78
2023-03-02T13:53:27.486Z,5.72
2023-03-02T13:55:54.518Z,4.90
2023-03-02T13:58:21.430Z,5.60
2023-03-02T14:00:48.160Z,5.35
2023-03-02T14:03:22.376Z,4.63
2023-03-02T14:05:48.858Z,4.22
2023-03-02T14:08:15.292Z,4.65
2023-03-02T14:10:42.489Z,4.97
2023-03-02T14:13:12.983Z,4.40
2023-03-02T14:15:46.604Z,5.72
2023-03-02T14:18:35.572Z,5.78
2023-03-02T14:21:02.189Z,4.22
2023-03-02T14:23:28.713Z,3.88
2023-03-02T14:25:55.925Z,4.15
2023-03-02T14:28:30.348Z,4.57
2023-03-02T14:30:58.071Z,4.55
2023-03-02T14:33:25.460Z,3.95
2023-03-02T14:35:53.026Z,4.07
2023-03-02T14:38:20.352Z,4.65
2023-03-02T14:40:46.882Z,4.07
2023-03-02T14:43:13.444Z,4.05
2023-03-02T14:45:39.868Z,4.93
2023-03-02T14:48:06.324Z,4.28
2023-03-02T14:50:35.557Z,4.35
2023-03-02T14:53:02.112Z,4.10
2023-03-02T14:55:29.538Z,4.45
2023-03-02T14:57:58.665Z,3.83
2023-03-02T15:00:25.613Z,4.10
2023-03-02T15:02:52.439Z,3.90
2023-03-02T15:05:19.296Z,4.00
2023-03-02T15:07:45.829Z,3.80
2023-03-02T15:10:16.519Z,3.65
2023-03-02T15:12:43.088Z,4.32
2023-03-02T15:15:09.871Z,3.75
2023-03-02T15:17:36.333Z,4.43
2023-03-02T15:20:02.984Z,4.30
2023-03-02T15:22:29.383Z,4.18
2023-03-02T15:24:55.868Z,5.00
2023-03-02T15:27:23.755Z,3.92
2023-03-02T15:29:50.489Z,4.15
2023-03-02T15:32:17.212Z,3.78
2023-03-02T15:34:43.942Z,3.35
2023-03-02T15:37:11.654Z,4.00
2023-03-02T15:39:38.352Z,3.60
2023-03-02T15:42:05.455Z,3.05
2023-03-02T15:44:31.995Z,3.35
2023-03-02T15:46:59.095Z,3.28
2023-03-02T15:49:28.113Z,4.35
2023-03-02T15:51:57.464Z,5.22
2023-03-02T15:54:27.619Z,4.30
2023-03-02T15:56:54.301Z,4.95
2023-03-02T15:59:21.762Z,4.45
2023-03-02T16:01:48.483Z,5.10
2023-03-02T16:04:15.076Z,6.35
2023-03-02T16:06:41.716Z,7.60
2023-03-02T16:09:08.146Z,8.13
2023-03-02T16:11:34.557Z,8.80
2023-03-02T16:14:00.998Z,8.30
2023-03-02T16:16:27.759Z,9.40
2023-03-02T16:18:55.016Z,11.48
2023-03-02T16:21:22.110Z,10.20
2023-03-02T16:23:48.620Z,8.98
2023-03-02T16:26:16.512Z,10.20
2023-03-02T16:28:43.062Z,12.35
2023-03-02T16:31:11.089Z,14.57
2023-03-02T16:33:37.588Z,15.02
2023-03-02T16:36:04.119Z,16.63
2023-03-02T16:38:30.548Z,17.20
2023-03-02T16:40:57.309Z,16.02
2023-03-02T16:43:24.477Z,17.10
2023-03-02T16:45:51.610Z,19.27
2023-03-02T16:48:18.160Z,20.33
2023-03-02T16:50:44.596Z,20.40
2023-03-02T16:53:11.060Z,20.23
2023-03-02T16:55:37.513Z,21.70
2023-03-02T16:58:03.977Z,22.75
2023-03-02T17:00:31.332Z,19.85
2023-03-02T17:02:57.814Z,22.80
2023-03-02T17:05:24.318Z,22.98
2023-03-02T17:07:50.889Z,24.58
2023-03-02T17:10:18.586Z,22.00
2023-03-02T17:12:45.027Z,22.67
2023-03-02T17:15:13.553Z,24.90
2023-03-02T17:17:40.922Z,22.90
2023-03-02T17:20:08.211Z,23.45
2023-03-02T17:22:34.726Z,23.83
2023-03-02T17:25:03.523Z,24.70
2023-03-02T17:27:31.019Z,24.65
2023-03-02T17:29:57.579Z,23.98
2023-03-02T17:32:24.282Z,24.23
2023-03-02T17:34:50.900Z,22.48
2023-03-02T17:37:17.649Z,22.88
2023-03-02T17:39:44.294Z,24.92
2023-03-02T17:42:10.754Z,25.45
2023-03-02T17:44:40.709Z,25.35
2023-03-02T17:47:08.371Z,22.73
2023-03-02T17:49:38.094Z,24.00
2023-03-02T17:52:04.499Z,23.52
2023-03-02T17:54:30.878Z,24.60
2023-03-02T17:56:57.381Z,24.52
2023-03-02T17:59:23.849Z,24.45
2023-03-02T18:01:50.321Z,24.83
2023-03-02T18:04:16.781Z,25.55
2023-03-02T18:06:43.313Z,22.42
2023-03-02T18:09:10.178Z,27.17
2023-03-02T18:11:36.813Z,25.08
2023-03-02T18:14:03.762Z,25.10
2023-03-02T18:16:30.945Z,24.55
2023-03-02T18:18:57.764Z,22.90
2023-03-02T18:21:24.322Z,24.13
2023-03-02T18:23:50.864Z,21.98
2023-03-02T18:26:17.287Z,24.65
2023-03-02T18:28:43.700Z,24.77
2023-03-02T18:31:11.579Z,23.85
2023-03-02T18:33:38.095Z,24.20
2023-03-02T18:36:05.529Z,24.73
2023-03-02T18:38:32.984Z,24.65
2023-03-02T18:41:00.798Z,23.63
2023-03-02T18:43:27.797Z,24.00
2023-03-02T18:45:54.384Z,23.15
2023-03-02T18:48:21.077Z,24.05
2023-03-02T18:50:47.841Z,25.13
2023-03-02T18:53:14.313Z,24.27
2023-03-02T18:55:41.496Z,23.67
2023-03-02T18:58:08.493Z,25.45
2023-03-02T19:00:35.095Z,26.45
2023-03-02T19:03:01.568Z,24.58
2023-03-02T19:05:29.701Z,26.17
2023-03-02T19:07:59.023Z,25.90
2023-03-02T19:10:25.888Z,27.27
2023-03-02T19:12:52.707Z,27.33
2023-03-02T19:15:19.555Z,27.42
2023-03-02T19:17:46.053Z,27.52
2023-03-02T19:20:14.277Z,28.23
2023-03-02T19:22:40.883Z,26.58
2023-03-02T19:25:07.456Z,25.73
2023-03-02T19:27:33.938Z,27.35
2023-03-02T19:30:00.550Z,26.33
2023-03-02T19:32:27.055Z,28.45
2023-03-02T19:34:53.661Z,25.48
2023-03-02T19:37:20.194Z,26.75
2023-03-02T19:39:46.653Z,27.50
2023-03-02T19:42:13.129Z,27.70
2023-03-02T19:44:39.536Z,25.30
2023-03-02T19:47:06.331Z,25.42
2023-03-02T19:49:32.760Z,25.52
2023-03-02T19:52:00.661Z,25.13
2023-03-02T19:54:27.465Z,25.58
2023-03-02T19:56:54.226Z,24.95
2023-03-02T19:59:22.015Z,24.65
2023-03-02T20:01:49.433Z,25.75
2023-03-02T20:04:16.327Z,25.05
2023-03-02T20:06:42.797Z,24.90
2023-03-02T20:09:09.678Z,25.55
2023-03-02T20:11:36.299Z,24.50
2023-03-02T20:14:02.737Z,28.45
2023-03-02T20:16:29.975Z,24.63
2023-03-02T20:18:58.069Z,27.63
2023-03-02T20:21:26.657Z,27.42
2023-03-02T20:23:53.441Z,27.10
2023-03-02T20:26:20.392Z,25.98
2023-03-02T20:28:47.063Z,24.83
2023-03-02T20:31:14.748Z,24.45
2023-03-02T20:33:46.662Z,24.20
2023-03-02T20:36:13.731Z,25.25
2023-03-02T20:38:43.872Z,25.77
2023-03-02T20:41:11.811Z,24.58
2023-03-02T20:43:38.577Z,24.95
2023-03-02T20:46:06.267Z,24.33
2023-03-02T20:48:33.097Z,22.50
2023-03-02T20:50:59.832Z,22.20
2023-03-02T20:53:26.493Z,22.95
2023-03-02T20:55:53.944Z,21.92
2023-03-02T20:58:20.592Z,22.98
2023-03-02T21:00:48.650Z,20.70
2023-03-02T21:03:15.483Z,21.48
2023-03-02T21:05:42.359Z,19.38
2023-03-02T21:08:10.029Z,21.27
2023-03-02T21:10:37.297Z,22.65
2023-03-02T21:13:04.648Z,20.83
2023-03-02T21:15:31.355Z,21.13
2023-03-02T21:17:59.281Z,19.45
2023-03-02T21:20:27.560Z,20.08
2023-03-02T21:22:54.100Z,18.88
2023-03-02T21:25:20.735Z,19.48
2023-03-02T21:27:47.270Z,18.08
2023-03-02T21:30:25.486Z,18.98
2023-03-02T21:32:52.084Z,17.98
2023-03-02T21:35:23.417Z,18.63
2023-03-02T21:37:52.607Z,18.10
2023-03-02T21:40:20.941Z,17.00
2023-03-02T21:42:47.389Z,17.30
2023-03-02T21:45:13.910Z,17.67
2023-03-02T21:47:41.325Z,17.15
2023-03-02T21:50:16.253Z,17.10
2023-03-02T21:52:42.846Z,17.52
2023-03-02T21:55:09.836Z,15.95
2023-03-02T21:57:36.321Z,16.73
2023-03-02T22:00:04.712Z,16.98
2023-03-02T22:02:31.861Z,16.23
2023-03-02T22:04:58.764Z,16.75
2023-03-02T22:07:25.311Z,14.63
2023-03-02T22:09:52.639Z,15.88
2023-03-02T22:12:22.508Z,14.90
2023-03-02T22:14:49.066Z,15.45
2023-03-02T22:17:17.591Z,15.20
2023-03-02T22:19:44.712Z,14.98
2023-03-02T22:22:16.280Z,15.00
2023-03-02T22:24:45.856Z,14.17
2023-03-02T22:27:24.300Z,15.20
2023-03-02T22:29:52.314Z,14.68
2023-03-02T22:32:26.960Z,14.98
2023-03-02T22:34:55.196Z,14.38
2023-03-02T22:37:22.927Z,14.20
2023-03-02T22:39:50.453Z,13.32
2023-03-02T22:42:18.404Z,14.10
2023-03-02T22:44:47.522Z,13.75
2023-03-02T22:47:18.909Z,13.38
2023-03-02T22:49:46.039Z,12.93
2023-03-02T22:52:14.216Z,13.35
2023-03-02T22:54:40.745Z,12.98
2023-03-02T22:57:16.763Z,13.55
2023-03-02T22:59:43.222Z,12.30
2023-03-02T23:02:15.406Z,13.57
2023-03-02T23:04:42.135Z,13.05
2023-03-02T23:07:27.038Z,13.02
2023-03-02T23:09:53.439Z,12.85
2023-03-02T23:12:22.411Z,12.63
2023-03-02T23:14:50.216Z,13.45
2023-03-02T23:17:36.205Z,12.00
2023-03-02T23:20:03.126Z,13.32
2023-03-02T23:22:30.807Z,12.50
2023-03-02T23:24:57.261Z,12.77
2023-03-02T23:27:24.408Z,13.40
2023-03-02T23:29:51.698Z,12.48
2023-03-02T23:32:19.490Z,12.93
2023-03-02T23:34:46.270Z,13.07
2023-03-02T23:37:12.949Z,13.85
2023-03-02T23:39:39.383Z,12.95
2023-03-02T23:42:05.847Z,12.77
2023-03-02T23:44:32.338Z,13.70
2023-03-02T23:46:58.755Z,13.63
2023-03-02T23:49:25.325Z,14.60
2023-03-02T23:51:51.699Z,13.02
2023-03-02T23:54:18.177Z,13.20
2023-03-02T23:56:44.581Z,12.52
2023-03-02T23:59:11.063Z,13.13
